sensor_id;sensor_type;location;lat;lon;timestamp;temperature;humidity
20568;DHT22;10442;49.932;11.592;2023-06-14T00:01:59;17.50;50.80
20568;DHT22;10442;49.932;11.592;2023-06-14T00:04:26;17.50;51.60
20568;DHT22;10442;49.932;11.592;2023-06-14T00:06:55;17.40;51.30
20568;DHT22;10442;49.932;11.592;2023-06-14T00:09:24;17.40;51.80
20568;DHT22;10442;49.932;11.592;2023-06-14T00:11:51;17.30;51.60
20568;DHT22;10442;49.932;11.592;2023-06-14T00:14:18;17.30;51.30
20568;DHT22;10442;49.932;11.592;2023-06-14T00:16:46;17.30;51.20
20568;DHT22;10442;49.932;11.592;2023-06-14T00:19:13;17.30;51.00
20568;DHT22;10442;49.932;11.592;2023-06-14T00:21:41;17.20;51.00
20568;DHT22;10442;49.932;11.592;2023-06-14T00:24:09;17.20;51.50
20568;DHT22;10442;49.932;11.592;2023-06-14T00:26:36;17.10;51.70
20568;DHT22;10442;49.932;11.592;2023-06-14T00:29:04;17.20;52.00
20568;DHT22;10442;49.932;11.592;2023-06-14T00:31:32;17.10;52.00
20568;DHT22;10442;49.932;11.592;2023-06-14T00:33:59;17.00;52.20
20568;DHT22;10442;49.932;11.592;2023-06-14T00:36:27;17.00;52.70
20568;DHT22;10442;49.932;11.592;2023-06-14T00:38:54;16.90;52.50
20568;DHT22;10442;49.932;11.592;2023-06-14T00:41:22;16.90;52.70
20568;DHT22;10442;49.932;11.592;2023-06-14T00:43:50;16.80;52.60
20568;DHT22;10442;49.932;11.592;2023-06-14T00:46:17;16.80;52.60
20568;DHT22;10442;49.932;11.592;2023-06-14T00:48:47;16.80;52.80
20568;DHT22;10442;49.932;11.592;2023-06-14T00:51:16;16.80;53.00
20568;DHT22;10442;49.932;11.592;2023-06-14T00:53:44;16.70;53.10
20568;DHT22;10442;49.932;11.592;2023-06-14T00:56:14;16.70;53.20
20568;DHT22;10442;49.932;11.592;2023-06-14T00:58:43;16.70;53.30
20568;DHT22;10442;49.932;11.592;2023-06-14T01:01:11;16.60;54.30
20568;DHT22;10442;49.932;11.592;2023-06-14T01:03:38;16.50;54.80
20568;DHT22;10442;49.932;11.592;2023-06-14T01:06:23;16.50;54.10
20568;DHT22;10442;49.932;11.592;2023-06-14T01:09:25;16.40;54.00
20568;DHT22;10442;49.932;11.592;2023-06-14T01:12:10;16.40;54.20
20568;DHT22;10442;49.932;11.592;2023-06-14T01:14:39;16.40;54.10
20568;DHT22;10442;49.932;11.592;2023-06-14T01:17:07;16.30;54.00
20568;DHT22;10442;49.932;11.592;2023-06-14T01:19:43;16.30;54.20
20568;DHT22;10442;49.932;11.592;2023-06-14T01:22:14;16.20;54.00
20568;DHT22;10442;49.932;11.592;2023-06-14T01:24:41;16.20;53.80
20568;DHT22;10442;49.932;11.592;2023-06-14T01:27:12;16.20;54.20
20568;DHT22;10442;49.932;11.592;2023-06-14T01:29:40;16.10;54.40
20568;DHT22;10442;49.932;11.592;2023-06-14T01:32:15;16.10;54.50
20568;DHT22;10442;49.932;11.592;2023-06-14T01:34:42;16.00;54.70
20568;DHT22;10442;49.932;11.592;2023-06-14T01:37:11;16.00;54.80
20568;DHT22;10442;49.932;11.592;2023-06-14T01:39:39;15.90;55.20
20568;DHT22;10442;49.932;11.592;2023-06-14T01:42:08;15.90;55.50
20568;DHT22;10442;49.932;11.592;2023-06-14T01:44:36;15.80;56.10
20568;DHT22;10442;49.932;11.592;2023-06-14T01:47:04;15.70;55.90
20568;DHT22;10442;49.932;11.592;2023-06-14T01:49:34;15.70;55.60
20568;DHT22;10442;49.932;11.592;2023-06-14T01:52:02;15.60;55.70
20568;DHT22;10442;49.932;11.592;2023-06-14T01:54:29;15.60;55.60
20568;DHT22;10442;49.932;11.592;2023-06-14T01:56:57;15.50;56.10
20568;DHT22;10442;49.932;11.592;2023-06-14T01:59:25;15.50;56.10
20568;DHT22;10442;49.932;11.592;2023-06-14T02:01:53;15.40;56.60
20568;DHT22;10442;49.932;11.592;2023-06-14T02:04:20;15.40;56.20
20568;DHT22;10442;49.932;11.592;2023-06-14T02:06:48;15.30;56.20
20568;DHT22;10442;49.932;11.592;2023-06-14T02:09:15;15.30;56.20
20568;DHT22;10442;49.932;11.592;2023-06-14T02:11:43;15.20;56.20
20568;DHT22;10442;49.932;11.592;2023-06-14T02:14:10;15.20;56.70
20568;DHT22;10442;49.932;11.592;2023-06-14T02:16:38;15.20;56.70
20568;DHT22;10442;49.932;11.592;2023-06-14T02:19:06;15.10;57.50
20568;DHT22;10442;49.932;11.592;2023-06-14T02:21:36;15.10;57.10
20568;DHT22;10442;49.932;11.592;2023-06-14T02:24:05;15.00;57.20
20568;DHT22;10442;49.932;11.592;2023-06-14T02:26:33;15.00;57.00
20568;DHT22;10442;49.932;11.592;2023-06-14T02:29:01;15.00;57.10
20568;DHT22;10442;49.932;11.592;2023-06-14T02:31:29;15.00;57.20
20568;DHT22;10442;49.932;11.592;2023-06-14T02:33:57;15.00;57.10
20568;DHT22;10442;49.932;11.592;2023-06-14T02:36:24;14.90;57.40
20568;DHT22;10442;49.932;11.592;2023-06-14T02:38:52;14.90;57.30
20568;DHT22;10442;49.932;11.592;2023-06-14T02:41:21;14.80;57.30
20568;DHT22;10442;49.932;11.592;2023-06-14T02:43:48;14.80;57.40
20568;DHT22;10442;49.932;11.592;2023-06-14T02:46:16;14.80;57.70
20568;DHT22;10442;49.932;11.592;2023-06-14T02:48:43;14.70;57.40
20568;DHT22;10442;49.932;11.592;2023-06-14T02:51:11;14.70;57.40
20568;DHT22;10442;49.932;11.592;2023-06-14T02:53:39;14.70;57.40
20568;DHT22;10442;49.932;11.592;2023-06-14T02:56:07;14.70;57.80
20568;DHT22;10442;49.932;11.592;2023-06-14T02:58:38;14.70;58.60
20568;DHT22;10442;49.932;11.592;2023-06-14T03:01:06;14.60;58.60
20568;DHT22;10442;49.932;11.592;2023-06-14T03:03:35;14.60;58.80
20568;DHT22;10442;49.932;11.592;2023-06-14T03:06:02;14.50;58.80
20568;DHT22;10442;49.932;11.592;2023-06-14T03:08:34;14.50;58.70
20568;DHT22;10442;49.932;11.592;2023-06-14T03:11:11;14.50;58.60
20568;DHT22;10442;49.932;11.592;2023-06-14T03:13:39;14.40;58.50
20568;DHT22;10442;49.932;11.592;2023-06-14T03:16:08;14.40;58.70
20568;DHT22;10442;49.932;11.592;2023-06-14T03:18:38;14.40;59.10
20568;DHT22;10442;49.932;11.592;2023-06-14T03:21:07;14.40;59.50
20568;DHT22;10442;49.932;11.592;2023-06-14T03:23:38;14.30;59.60
20568;DHT22;10442;49.932;11.592;2023-06-14T03:26:05;14.30;59.60
20568;DHT22;10442;49.932;11.592;2023-06-14T03:28:33;14.30;59.60
20568;DHT22;10442;49.932;11.592;2023-06-14T03:31:01;14.30;59.50
20568;DHT22;10442;49.932;11.592;2023-06-14T03:33:31;14.30;59.40
20568;DHT22;10442;49.932;11.592;2023-06-14T03:35:59;14.30;59.40
20568;DHT22;10442;49.932;11.592;2023-06-14T03:38:27;14.30;59.40
20568;DHT22;10442;49.932;11.592;2023-06-14T03:40:55;14.30;60.00
20568;DHT22;10442;49.932;11.592;2023-06-14T03:43:22;14.30;59.70
20568;DHT22;10442;49.932;11.592;2023-06-14T03:45:50;14.30;59.60
20568;DHT22;10442;49.932;11.592;2023-06-14T03:48:18;14.30;59.50
20568;DHT22;10442;49.932;11.592;2023-06-14T03:50:46;14.30;59.70
20568;DHT22;10442;49.932;11.592;2023-06-14T03:53:14;14.30;59.50
20568;DHT22;10442;49.932;11.592;2023-06-14T03:55:45;14.40;59.80
20568;DHT22;10442;49.932;11.592;2023-06-14T03:58:16;14.40;59.80
20568;DHT22;10442;49.932;11.592;2023-06-14T04:00:43;14.40;59.90
20568;DHT22;10442;49.932;11.592;2023-06-14T04:03:10;14.40;59.90
20568;DHT22;10442;49.932;11.592;2023-06-14T04:05:41;14.40;59.90
20568;DHT22;10442;49.932;11.592;2023-06-14T04:08:11;14.50;59.90
20568;DHT22;10442;49.932;11.592;2023-06-14T04:10:41;14.50;59.70
20568;DHT22;10442;49.932;11.592;2023-06-14T04:13:09;14.60;60.00
20568;DHT22;10442;49.932;11.592;2023-06-14T04:15:39;14.60;60.10
20568;DHT22;10442;49.932;11.592;2023-06-14T04:18:12;14.70;60.20
20568;DHT22;10442;49.932;11.592;2023-06-14T04:20:40;14.80;60.30
20568;DHT22;10442;49.932;11.592;2023-06-14T04:23:15;14.90;60.00
20568;DHT22;10442;49.932;11.592;2023-06-14T04:25:45;15.00;59.90
20568;DHT22;10442;49.932;11.592;2023-06-14T04:28:14;15.10;60.00
20568;DHT22;10442;49.932;11.592;2023-06-14T04:30:43;15.20;59.80
20568;DHT22;10442;49.932;11.592;2023-06-14T04:33:11;15.30;59.80
20568;DHT22;10442;49.932;11.592;2023-06-14T04:35:39;15.40;59.80
20568;DHT22;10442;49.932;11.592;2023-06-14T04:38:08;15.60;59.60
20568;DHT22;10442;49.932;11.592;2023-06-14T04:40:36;15.80;59.20
20568;DHT22;10442;49.932;11.592;2023-06-14T04:43:11;16.10;58.90
20568;DHT22;10442;49.932;11.592;2023-06-14T04:45:43;16.30;58.50
20568;DHT22;10442;49.932;11.592;2023-06-14T04:48:14;16.60;58.10
20568;DHT22;10442;49.932;11.592;2023-06-14T04:50:41;16.80;57.70
20568;DHT22;10442;49.932;11.592;2023-06-14T04:53:10;17.10;57.40
20568;DHT22;10442;49.932;11.592;2023-06-14T04:55:38;17.30;57.10
20568;DHT22;10442;49.932;11.592;2023-06-14T04:58:05;17.60;57.10
20568;DHT22;10442;49.932;11.592;2023-06-14T05:00:34;17.90;56.80
20568;DHT22;10442;49.932;11.592;2023-06-14T05:03:02;18.30;56.30
20568;DHT22;10442;49.932;11.592;2023-06-14T05:05:30;18.60;55.70
20568;DHT22;10442;49.932;11.592;2023-06-14T05:07:57;19.10;55.10
20568;DHT22;10442;49.932;11.592;2023-06-14T05:10:25;19.50;54.60
20568;DHT22;10442;49.932;11.592;2023-06-14T05:12:52;19.80;53.70
20568;DHT22;10442;49.932;11.592;2023-06-14T05:15:20;20.00;52.80
20568;DHT22;10442;49.932;11.592;2023-06-14T05:17:53;20.20;52.30
20568;DHT22;10442;49.932;11.592;2023-06-14T05:20:23;20.20;51.60
20568;DHT22;10442;49.932;11.592;2023-06-14T05:22:54;20.20;51.40
20568;DHT22;10442;49.932;11.592;2023-06-14T05:25:23;20.10;51.40
20568;DHT22;10442;49.932;11.592;2023-06-14T05:27:51;20.00;51.50
20568;DHT22;10442;49.932;11.592;2023-06-14T05:30:19;19.90;51.70
20568;DHT22;10442;49.932;11.592;2023-06-14T05:32:46;19.90;51.90
20568;DHT22;10442;49.932;11.592;2023-06-14T05:35:14;19.90;51.90
20568;DHT22;10442;49.932;11.592;2023-06-14T05:37:42;19.90;51.90
20568;DHT22;10442;49.932;11.592;2023-06-14T05:40:10;19.90;52.20
20568;DHT22;10442;49.932;11.592;2023-06-14T05:42:37;20.00;52.20
20568;DHT22;10442;49.932;11.592;2023-06-14T05:45:05;20.20;52.40
20568;DHT22;10442;49.932;11.592;2023-06-14T05:47:33;20.40;52.20
20568;DHT22;10442;49.932;11.592;2023-06-14T05:50:01;20.70;51.70
20568;DHT22;10442;49.932;11.592;2023-06-14T05:52:28;20.90;51.60
20568;DHT22;10442;49.932;11.592;2023-06-14T05:54:56;21.20;51.00
20568;DHT22;10442;49.932;11.592;2023-06-14T05:57:24;21.50;51.20
20568;DHT22;10442;49.932;11.592;2023-06-14T05:59:52;21.90;50.60
20568;DHT22;10442;49.932;11.592;2023-06-14T06:02:19;22.30;50.10
20568;DHT22;10442;49.932;11.592;2023-06-14T06:04:47;22.80;49.90
20568;DHT22;10442;49.932;11.592;2023-06-14T06:07:14;23.40;49.40
20568;DHT22;10442;49.932;11.592;2023-06-14T06:09:42;24.00;47.50
20568;DHT22;10442;49.932;11.592;2023-06-14T06:12:10;24.70;46.70
20568;DHT22;10442;49.932;11.592;2023-06-14T06:14:38;25.40;46.20
20568;DHT22;10442;49.932;11.592;2023-06-14T06:17:05;26.10;45.60
20568;DHT22;10442;49.932;11.592;2023-06-14T06:19:34;26.80;43.80
20568;DHT22;10442;49.932;11.592;2023-06-14T06:22:02;27.50;43.60
20568;DHT22;10442;49.932;11.592;2023-06-14T06:24:32;28.20;42.70
20568;DHT22;10442;49.932;11.592;2023-06-14T06:26:59;28.80;41.30
20568;DHT22;10442;49.932;11.592;2023-06-14T06:29:27;29.40;39.40
20568;DHT22;10442;49.932;11.592;2023-06-14T06:31:55;29.90;38.30
20568;DHT22;10442;49.932;11.592;2023-06-14T06:34:23;30.30;38.20
20568;DHT22;10442;49.932;11.592;2023-06-14T06:36:51;30.80;37.80
20568;DHT22;10442;49.932;11.592;2023-06-14T06:39:18;31.20;36.10
20568;DHT22;10442;49.932;11.592;2023-06-14T06:41:46;31.40;36.70
20568;DHT22;10442;49.932;11.592;2023-06-14T06:44:13;31.80;35.80
20568;DHT22;10442;49.932;11.592;2023-06-14T06:46:41;32.10;35.30
20568;DHT22;10442;49.932;11.592;2023-06-14T06:49:10;32.50;34.70
20568;DHT22;10442;49.932;11.592;2023-06-14T06:51:44;32.80;33.60
20568;DHT22;10442;49.932;11.592;2023-06-14T06:54:25;33.00;33.20
20568;DHT22;10442;49.932;11.592;2023-06-14T06:56:53;33.30;32.40
20568;DHT22;10442;49.932;11.592;2023-06-14T06:59:20;33.60;32.10
20568;DHT22;10442;49.932;11.592;2023-06-14T07:01:48;33.80;31.60
20568;DHT22;10442;49.932;11.592;2023-06-14T07:04:15;34.00;30.20
20568;DHT22;10442;49.932;11.592;2023-06-14T07:06:43;34.20;29.90
20568;DHT22;10442;49.932;11.592;2023-06-14T07:09:11;34.40;29.50
20568;DHT22;10442;49.932;11.592;2023-06-14T07:11:43;34.50;28.70
20568;DHT22;10442;49.932;11.592;2023-06-14T07:14:11;34.60;29.10
20568;DHT22;10442;49.932;11.592;2023-06-14T07:16:39;34.70;29.40
20568;DHT22;10442;49.932;11.592;2023-06-14T07:19:08;34.80;28.60
20568;DHT22;10442;49.932;11.592;2023-06-14T07:21:36;35.00;28.60
20568;DHT22;10442;49.932;11.592;2023-06-14T07:24:07;35.00;28.00
20568;DHT22;10442;49.932;11.592;2023-06-14T07:26:35;35.00;28.20
20568;DHT22;10442;49.932;11.592;2023-06-14T07:29:03;35.00;28.20
20568;DHT22;10442;49.932;11.592;2023-06-14T07:31:30;35.10;27.50
20568;DHT22;10442;49.932;11.592;2023-06-14T07:33:58;35.20;26.70
20568;DHT22;10442;49.932;11.592;2023-06-14T07:36:25;35.20;26.90
20568;DHT22;10442;49.932;11.592;2023-06-14T07:38:53;35.20;27.10
20568;DHT22;10442;49.932;11.592;2023-06-14T07:41:21;35.30;27.40
20568;DHT22;10442;49.932;11.592;2023-06-14T07:43:49;35.30;25.70
20568;DHT22;10442;49.932;11.592;2023-06-14T07:46:16;35.00;24.40
20568;DHT22;10442;49.932;11.592;2023-06-14T07:48:44;34.80;24.90
20568;DHT22;10442;49.932;11.592;2023-06-14T07:51:12;34.50;25.40
20568;DHT22;10442;49.932;11.592;2023-06-14T07:53:39;34.40;25.30
20568;DHT22;10442;49.932;11.592;2023-06-14T07:56:08;34.10;25.20
20568;DHT22;10442;49.932;11.592;2023-06-14T07:58:35;33.80;25.30
20568;DHT22;10442;49.932;11.592;2023-06-14T08:01:03;33.70;25.60
20568;DHT22;10442;49.932;11.592;2023-06-14T08:03:33;33.30;25.50
20568;DHT22;10442;49.932;11.592;2023-06-14T08:06:01;33.20;26.00
20568;DHT22;10442;49.932;11.592;2023-06-14T08:08:29;33.10;25.80
20568;DHT22;10442;49.932;11.592;2023-06-14T08:10:57;33.10;25.60
20568;DHT22;10442;49.932;11.592;2023-06-14T08:13:25;32.90;25.70
20568;DHT22;10442;49.932;11.592;2023-06-14T08:15:52;33.00;25.60
20568;DHT22;10442;49.932;11.592;2023-06-14T08:18:20;32.90;25.60
20568;DHT22;10442;49.932;11.592;2023-06-14T08:20:48;32.80;25.60
20568;DHT22;10442;49.932;11.592;2023-06-14T08:23:15;32.90;25.80
20568;DHT22;10442;49.932;11.592;2023-06-14T08:25:46;32.90;25.90
20568;DHT22;10442;49.932;11.592;2023-06-14T08:28:13;32.80;24.80
20568;DHT22;10442;49.932;11.592;2023-06-14T08:30:42;32.80;24.90
20568;DHT22;10442;49.932;11.592;2023-06-14T08:33:10;32.90;25.70
20568;DHT22;10442;49.932;11.592;2023-06-14T08:35:44;33.00;25.40
20568;DHT22;10442;49.932;11.592;2023-06-14T08:38:11;33.10;25.60
20568;DHT22;10442;49.932;11.592;2023-06-14T08:40:41;33.20;25.10
20568;DHT22;10442;49.932;11.592;2023-06-14T08:43:09;33.40;25.30
20568;DHT22;10442;49.932;11.592;2023-06-14T08:45:37;33.50;25.40
20568;DHT22;10442;49.932;11.592;2023-06-14T08:48:06;33.70;25.40
20568;DHT22;10442;49.932;11.592;2023-06-14T08:50:36;33.90;25.10
20568;DHT22;10442;49.932;11.592;2023-06-14T08:53:08;33.80;24.80
20568;DHT22;10442;49.932;11.592;2023-06-14T08:55:38;33.90;25.00
20568;DHT22;10442;49.932;11.592;2023-06-14T08:58:09;34.00;24.60
20568;DHT22;10442;49.932;11.592;2023-06-14T09:00:42;34.00;24.70
20568;DHT22;10442;49.932;11.592;2023-06-14T09:03:10;34.10;24.50
20568;DHT22;10442;49.932;11.592;2023-06-14T09:05:42;34.10;24.50
20568;DHT22;10442;49.932;11.592;2023-06-14T09:08:11;34.00;24.10
20568;DHT22;10442;49.932;11.592;2023-06-14T09:10:40;33.90;24.40
20568;DHT22;10442;49.932;11.592;2023-06-14T09:13:08;33.80;24.80
20568;DHT22;10442;49.932;11.592;2023-06-14T09:15:35;33.80;24.70
20568;DHT22;10442;49.932;11.592;2023-06-14T09:18:03;33.60;24.50
20568;DHT22;10442;49.932;11.592;2023-06-14T09:20:32;33.60;24.50
20568;DHT22;10442;49.932;11.592;2023-06-14T09:23:00;33.60;24.50
20568;DHT22;10442;49.932;11.592;2023-06-14T09:25:28;33.70;24.60
20568;DHT22;10442;49.932;11.592;2023-06-14T09:28:07;33.70;24.80
20568;DHT22;10442;49.932;11.592;2023-06-14T09:30:39;33.50;24.10
20568;DHT22;10442;49.932;11.592;2023-06-14T09:33:07;33.50;24.50
20568;DHT22;10442;49.932;11.592;2023-06-14T09:35:35;33.40;24.30
20568;DHT22;10442;49.932;11.592;2023-06-14T09:38:03;33.30;24.30
20568;DHT22;10442;49.932;11.592;2023-06-14T09:40:35;33.30;24.30
20568;DHT22;10442;49.932;11.592;2023-06-14T09:43:06;33.10;24.00
20568;DHT22;10442;49.932;11.592;2023-06-14T09:45:40;32.70;24.60
20568;DHT22;10442;49.932;11.592;2023-06-14T09:48:08;32.30;25.10
20568;DHT22;10442;49.932;11.592;2023-06-14T09:50:37;32.00;25.00
20568;DHT22;10442;49.932;11.592;2023-06-14T09:53:10;31.70;25.10
20568;DHT22;10442;49.932;11.592;2023-06-14T09:55:40;31.40;25.20
20568;DHT22;10442;49.932;11.592;2023-06-14T09:58:09;31.00;25.10
20568;DHT22;10442;49.932;11.592;2023-06-14T10:00:39;30.70;25.30
20568;DHT22;10442;49.932;11.592;2023-06-14T10:03:21;30.40;25.70
20568;DHT22;10442;49.932;11.592;2023-06-14T10:05:52;30.10;25.40
20568;DHT22;10442;49.932;11.592;2023-06-14T10:08:24;29.90;25.30
20568;DHT22;10442;49.932;11.592;2023-06-14T10:10:58;29.70;25.50
20568;DHT22;10442;49.932;11.592;2023-06-14T10:13:26;29.40;26.80
20568;DHT22;10442;49.932;11.592;2023-06-14T10:18:51;29.00;27.20
20568;DHT22;10442;49.932;11.592;2023-06-14T10:24:08;28.80;27.60
20568;DHT22;10442;49.932;11.592;2023-06-14T10:26:53;28.70;28.10
20568;DHT22;10442;49.932;11.592;2023-06-14T10:29:24;28.60;28.00
20568;DHT22;10442;49.932;11.592;2023-06-14T10:31:57;28.60;27.60
20568;DHT22;10442;49.932;11.592;2023-06-14T10:34:31;28.50;27.90
20568;DHT22;10442;49.932;11.592;2023-06-14T10:37:06;28.40;27.90
20568;DHT22;10442;49.932;11.592;2023-06-14T10:39:42;28.30;28.00
20568;DHT22;10442;49.932;11.592;2023-06-14T10:42:12;28.30;28.60
20568;DHT22;10442;49.932;11.592;2023-06-14T10:45:06;28.30;28.90
20568;DHT22;10442;49.932;11.592;2023-06-14T10:47:36;28.30;28.20
20568;DHT22;10442;49.932;11.592;2023-06-14T10:50:08;28.30;27.80
20568;DHT22;10442;49.932;11.592;2023-06-14T10:52:42;28.20;27.80
20568;DHT22;10442;49.932;11.592;2023-06-14T10:55:15;28.30;27.70
20568;DHT22;10442;49.932;11.592;2023-06-14T10:57:47;28.20;27.90
20568;DHT22;10442;49.932;11.592;2023-06-14T11:00:21;28.10;28.20
20568;DHT22;10442;49.932;11.592;2023-06-14T11:03:31;28.10;28.20
20568;DHT22;10442;49.932;11.592;2023-06-14T11:06:13;28.10;28.40
20568;DHT22;10442;49.932;11.592;2023-06-14T11:11:33;28.20;28.30
20568;DHT22;10442;49.932;11.592;2023-06-14T11:14:02;28.20;28.50
20568;DHT22;10442;49.932;11.592;2023-06-14T11:16:30;28.10;28.40
20568;DHT22;10442;49.932;11.592;2023-06-14T11:19:01;28.10;28.50
20568;DHT22;10442;49.932;11.592;2023-06-14T11:21:32;28.10;28.70
20568;DHT22;10442;49.932;11.592;2023-06-14T11:24:00;28.10;28.60
20568;DHT22;10442;49.932;11.592;2023-06-14T11:26:30;28.10;29.10
20568;DHT22;10442;49.932;11.592;2023-06-14T11:28:59;28.10;28.80
20568;DHT22;10442;49.932;11.592;2023-06-14T11:31:27;28.20;29.20
20568;DHT22;10442;49.932;11.592;2023-06-14T11:33:57;28.10;29.00
20568;DHT22;10442;49.932;11.592;2023-06-14T11:36:27;28.00;28.80
20568;DHT22;10442;49.932;11.592;2023-06-14T11:39:02;27.90;29.00
20568;DHT22;10442;49.932;11.592;2023-06-14T11:41:44;27.80;28.80
20568;DHT22;10442;49.932;11.592;2023-06-14T11:44:12;27.80;29.30
20568;DHT22;10442;49.932;11.592;2023-06-14T11:46:40;27.70;29.10
20568;DHT22;10442;49.932;11.592;2023-06-14T11:49:08;27.50;29.20
20568;DHT22;10442;49.932;11.592;2023-06-14T11:51:37;27.40;29.30
20568;DHT22;10442;49.932;11.592;2023-06-14T11:54:06;27.30;29.40
20568;DHT22;10442;49.932;11.592;2023-06-14T11:56:33;27.30;29.40
20568;DHT22;10442;49.932;11.592;2023-06-14T11:59:03;27.30;29.40
20568;DHT22;10442;49.932;11.592;2023-06-14T12:01:31;27.20;29.60
20568;DHT22;10442;49.932;11.592;2023-06-14T12:03:59;27.20;30.00
20568;DHT22;10442;49.932;11.592;2023-06-14T12:06:30;27.20;30.40
20568;DHT22;10442;49.932;11.592;2023-06-14T12:09:06;27.20;30.20
20568;DHT22;10442;49.932;11.592;2023-06-14T12:11:38;27.30;30.50
20568;DHT22;10442;49.932;11.592;2023-06-14T12:14:06;27.40;29.70
20568;DHT22;10442;49.932;11.592;2023-06-14T12:16:38;27.40;29.70
20568;DHT22;10442;49.932;11.592;2023-06-14T12:19:16;27.30;29.70
20568;DHT22;10442;49.932;11.592;2023-06-14T12:21:47;27.20;29.70
20568;DHT22;10442;49.932;11.592;2023-06-14T12:24:19;27.10;29.80
20568;DHT22;10442;49.932;11.592;2023-06-14T12:26:47;27.00;30.00
20568;DHT22;10442;49.932;11.592;2023-06-14T12:29:14;26.80;29.80
20568;DHT22;10442;49.932;11.592;2023-06-14T12:31:42;26.80;30.00
20568;DHT22;10442;49.932;11.592;2023-06-14T12:34:10;26.70;30.20
20568;DHT22;10442;49.932;11.592;2023-06-14T12:36:38;26.70;30.00
20568;DHT22;10442;49.932;11.592;2023-06-14T12:39:12;26.70;31.10
20568;DHT22;10442;49.932;11.592;2023-06-14T12:41:39;26.70;30.40
20568;DHT22;10442;49.932;11.592;2023-06-14T12:44:12;26.80;30.50
20568;DHT22;10442;49.932;11.592;2023-06-14T12:46:43;26.90;30.20
20568;DHT22;10442;49.932;11.592;2023-06-14T12:49:12;27.00;30.20
20568;DHT22;10442;49.932;11.592;2023-06-14T12:51:40;27.10;31.30
20568;DHT22;10442;49.932;11.592;2023-06-14T12:54:08;27.20;31.50
20568;DHT22;10442;49.932;11.592;2023-06-14T12:56:35;27.20;31.50
20568;DHT22;10442;49.932;11.592;2023-06-14T12:59:03;27.30;30.80
20568;DHT22;10442;49.932;11.592;2023-06-14T13:01:31;27.20;30.40
20568;DHT22;10442;49.932;11.592;2023-06-14T13:03:59;27.20;30.10
20568;DHT22;10442;49.932;11.592;2023-06-14T13:06:26;27.20;30.20
20568;DHT22;10442;49.932;11.592;2023-06-14T13:08:55;27.20;30.40
20568;DHT22;10442;49.932;11.592;2023-06-14T13:11:25;27.10;30.00
20568;DHT22;10442;49.932;11.592;2023-06-14T13:13:52;27.10;30.50
20568;DHT22;10442;49.932;11.592;2023-06-14T13:16:19;27.00;30.80
20568;DHT22;10442;49.932;11.592;2023-06-14T13:18:47;27.00;30.90
20568;DHT22;10442;49.932;11.592;2023-06-14T13:21:14;26.90;30.80
20568;DHT22;10442;49.932;11.592;2023-06-14T13:23:42;26.90;31.10
20568;DHT22;10442;49.932;11.592;2023-06-14T13:26:09;26.90;31.00
20568;DHT22;10442;49.932;11.592;2023-06-14T13:28:37;26.90;31.20
20568;DHT22;10442;49.932;11.592;2023-06-14T13:31:05;26.80;31.20
20568;DHT22;10442;49.932;11.592;2023-06-14T13:33:32;26.80;31.40
20568;DHT22;10442;49.932;11.592;2023-06-14T13:36:00;26.80;31.60
20568;DHT22;10442;49.932;11.592;2023-06-14T13:38:27;26.90;31.80
20568;DHT22;10442;49.932;11.592;2023-06-14T13:40:55;27.00;32.50
20568;DHT22;10442;49.932;11.592;2023-06-14T13:43:22;27.00;32.50
20568;DHT22;10442;49.932;11.592;2023-06-14T13:45:50;27.00;32.70
20568;DHT22;10442;49.932;11.592;2023-06-14T13:48:17;27.10;33.00
20568;DHT22;10442;49.932;11.592;2023-06-14T13:50:45;27.10;32.90
20568;DHT22;10442;49.932;11.592;2023-06-14T13:53:13;27.10;32.70
20568;DHT22;10442;49.932;11.592;2023-06-14T13:55:41;27.10;32.10
20568;DHT22;10442;49.932;11.592;2023-06-14T13:58:08;27.10;32.50
20568;DHT22;10442;49.932;11.592;2023-06-14T14:00:36;27.20;31.90
20568;DHT22;10442;49.932;11.592;2023-06-14T14:03:07;27.20;30.90
20568;DHT22;10442;49.932;11.592;2023-06-14T14:05:36;27.10;30.30
20568;DHT22;10442;49.932;11.592;2023-06-14T14:08:04;27.00;29.70
20568;DHT22;10442;49.932;11.592;2023-06-14T14:10:31;27.00;29.70
20568;DHT22;10442;49.932;11.592;2023-06-14T14:12:59;26.90;29.60
20568;DHT22;10442;49.932;11.592;2023-06-14T14:15:26;26.90;29.40
20568;DHT22;10442;49.932;11.592;2023-06-14T14:17:55;26.80;29.70
20568;DHT22;10442;49.932;11.592;2023-06-14T14:20:24;26.80;29.60
20568;DHT22;10442;49.932;11.592;2023-06-14T14:22:52;26.80;29.80
20568;DHT22;10442;49.932;11.592;2023-06-14T14:25:19;26.90;29.60
20568;DHT22;10442;49.932;11.592;2023-06-14T14:27:47;27.00;29.40
20568;DHT22;10442;49.932;11.592;2023-06-14T14:30:15;27.00;29.60
20568;DHT22;10442;49.932;11.592;2023-06-14T14:32:44;27.10;29.40
20568;DHT22;10442;49.932;11.592;2023-06-14T14:35:12;27.10;29.40
20568;DHT22;10442;49.932;11.592;2023-06-14T14:37:40;27.10;29.10
20568;DHT22;10442;49.932;11.592;2023-06-14T14:40:08;27.20;29.40
20568;DHT22;10442;49.932;11.592;2023-06-14T14:42:36;27.20;29.30
20568;DHT22;10442;49.932;11.592;2023-06-14T14:45:05;27.10;29.30
20568;DHT22;10442;49.932;11.592;2023-06-14T14:47:32;27.20;29.50
20568;DHT22;10442;49.932;11.592;2023-06-14T14:50:00;27.30;29.00
20568;DHT22;10442;49.932;11.592;2023-06-14T14:52:28;27.30;28.80
20568;DHT22;10442;49.932;11.592;2023-06-14T14:54:55;27.30;29.40
20568;DHT22;10442;49.932;11.592;2023-06-14T14:57:22;27.30;30.00
20568;DHT22;10442;49.932;11.592;2023-06-14T14:59:50;27.30;30.00
20568;DHT22;10442;49.932;11.592;2023-06-14T15:02:18;27.30;30.10
20568;DHT22;10442;49.932;11.592;2023-06-14T15:04:46;27.30;30.80
20568;DHT22;10442;49.932;11.592;2023-06-14T15:07:13;27.20;30.40
20568;DHT22;10442;49.932;11.592;2023-06-14T15:09:41;27.20;30.30
20568;DHT22;10442;49.932;11.592;2023-06-14T15:12:09;27.10;29.80
20568;DHT22;10442;49.932;11.592;2023-06-14T15:14:38;27.00;29.80
20568;DHT22;10442;49.932;11.592;2023-06-14T15:17:05;27.00;29.70
20568;DHT22;10442;49.932;11.592;2023-06-14T15:19:35;27.00;29.80
20568;DHT22;10442;49.932;11.592;2023-06-14T15:22:04;27.00;29.20
20568;DHT22;10442;49.932;11.592;2023-06-14T15:24:33;27.00;29.10
20568;DHT22;10442;49.932;11.592;2023-06-14T15:27:11;27.00;28.80
20568;DHT22;10442;49.932;11.592;2023-06-14T15:29:41;27.00;28.60
20568;DHT22;10442;49.932;11.592;2023-06-14T15:32:09;26.90;28.50
20568;DHT22;10442;49.932;11.592;2023-06-14T15:34:38;27.00;28.60
20568;DHT22;10442;49.932;11.592;2023-06-14T15:37:07;26.90;29.00